Time;durP1;ratioP1;P1;durP2;ratioP2;P2;SDS_P1;SDS_P2;PMS_P1;PMS_P2;Temp;Humidity;BMP_temperature;BMP_pressure;BME280_temperature;BME280_humidity;BME280_pressure;Samples;Min_cycle;Max_cycle;Signal;HPM_P1;HPM_P2
2023/06/29 00:01:04;;;;;;;34.53;23.17;;;18.80;97.20;;;;;;5009382;28;20042;-69
2023/06/29 00:03:31;;;;;;;34.73;23.47;;;18.80;97.30;;;;;;5009309;28;20053;-69
2023/06/29 00:05:58;;;;;;;32.77;22.53;;;18.80;97.60;;;;;;5006081;28;20042;-69
2023/06/29 00:08:29;;;;;;;34.87;21.77;;;18.80;97.70;;;;;;4993136;28;20046;-69
2023/06/29 00:10:55;;;;;;;31.03;21.10;;;18.80;97.60;;;;;;5005902;28;20057;-69
2023/06/29 00:13:22;;;;;;;32.30;21.97;;;18.70;97.60;;;;;;5008814;28;20049;-69
2023/06/29 00:15:48;;;;;;;34.47;22.37;;;18.80;97.40;;;;;;5009425;28;20041;-69
2023/06/29 00:18:15;;;;;;;31.73;21.43;;;18.80;97.30;;;;;;5000596;28;20420;-69
2023/06/29 00:20:42;;;;;;;30.90;20.97;;;18.80;97.50;;;;;;4993099;28;20580;-69
2023/06/29 00:23:08;;;;;;;31.27;21.93;;;18.80;97.90;;;;;;4996145;28;20041;-69
2023/06/29 00:25:34;;;;;;;32.77;22.67;;;18.80;97.70;;;;;;5008470;28;20449;-69
2023/06/29 00:28:00;;;;;;;36.83;23.57;;;18.80;97.80;;;;;;5000007;28;20077;-69
2023/06/29 00:30:26;;;;;;;40.53;25.43;;;18.80;97.70;;;;;;4981750;28;20118;-69
2023/06/29 00:32:52;;;;;;;38.37;26.37;;;18.80;98.40;;;;;;4988171;28;20058;-69
2023/06/29 00:35:18;;;;;;;39.03;27.50;;;18.80;98.10;;;;;;5004127;28;20050;-69
2023/06/29 00:37:43;;;;;;;42.57;28.07;;;18.80;98.00;;;;;;5005482;28;20081;-69
2023/06/29 00:40:10;;;;;;;41.47;27.47;;;18.80;98.40;;;;;;5002312;28;20095;-69
2023/06/29 00:42:36;;;;;;;42.33;27.40;;;18.80;98.40;;;;;;5001614;28;20030;-69
2023/06/29 00:45:03;;;;;;;40.60;27.83;;;18.80;99.20;;;;;;5008414;28;20061;-69
2023/06/29 00:47:29;;;;;;;43.87;29.37;;;18.80;99.00;;;;;;5008407;28;20034;-69
2023/06/29 00:49:56;;;;;;;47.53;28.97;;;18.80;98.60;;;;;;5008852;28;20203;-69
2023/06/29 00:52:25;;;;;;;42.57;28.03;;;18.80;99.10;;;;;;5008611;28;20486;-69
2023/06/29 00:54:52;;;;;;;46.07;28.43;;;18.80;98.80;;;;;;5008786;28;20046;-69
2023/06/29 00:57:18;;;;;;;43.57;28.30;;;18.80;98.70;;;;;;5008386;28;20497;-69
2023/06/29 00:59:44;;;;;;;48.23;29.80;;;18.80;99.20;;;;;;4991363;28;20037;-69
2023/06/29 01:02:09;;;;;;;44.20;28.93;;;18.80;99.30;;;;;;4991799;28;20033;-69
2023/06/29 01:04:37;;;;;;;42.00;27.23;;;18.80;99.10;;;;;;4991701;28;20105;-69
2023/06/29 01:07:17;;;;;;;40.97;27.63;;;18.80;99.20;;;;;;5008303;28;20046;-69
2023/06/29 01:09:46;;;;;;;43.60;28.83;;;18.80;99.20;;;;;;5003141;28;20516;-69
2023/06/29 01:12:13;;;;;;;44.77;28.83;;;18.80;99.60;;;;;;5003991;28;20486;-69
2023/06/29 01:14:41;;;;;;;43.03;28.20;;;18.80;99.20;;;;;;5004400;28;20030;-69
2023/06/29 01:17:12;;;;;;;44.27;28.13;;;18.80;99.60;;;;;;4991393;28;20064;-69
2023/06/29 01:19:38;;;;;;;45.00;30.67;;;18.80;99.60;;;;;;4990918;28;20482;-69
2023/06/29 01:22:28;;;;;;;42.53;30.10;;;18.80;99.70;;;;;;5007928;28;20085;-69
2023/06/29 01:24:55;;;;;;;44.83;29.17;;;18.80;99.80;;;;;;5006818;28;20042;-69
2023/06/29 01:27:24;;;;;;;44.27;28.97;;;18.80;99.80;;;;;;5007375;28;20057;-69
2023/06/29 01:29:53;;;;;;;44.97;29.23;;;18.80;99.80;;;;;;4987155;28;20546;-69
2023/06/29 01:32:19;;;;;;;43.50;28.83;;;18.80;99.80;;;;;;5004687;28;20071;-69
2023/06/29 01:34:45;;;;;;;42.70;27.77;;;18.80;99.90;;;;;;4982417;28;20042;-69
2023/06/29 01:37:27;;;;;;;42.70;28.67;;;18.80;99.90;;;;;;4986513;28;20133;-69
2023/06/29 01:40:06;;;;;;;43.00;28.50;;;18.80;99.90;;;;;;4987771;28;20046;-69
2023/06/29 01:42:33;;;;;;;44.57;28.90;;;18.80;99.90;;;;;;5007325;28;20042;-69
2023/06/29 01:45:01;;;;;;;44.40;28.90;;;18.80;99.80;;;;;;5008401;28;20449;-69
2023/06/29 01:47:28;;;;;;;45.07;29.23;;;18.80;99.80;;;;;;4983542;28;20525;-69
2023/06/29 01:49:54;;;;;;;47.93;29.17;;;18.80;99.80;;;;;;5000300;28;20038;-69
2023/06/29 01:52:20;;;;;;;44.93;30.03;;;18.80;99.90;;;;;;4990457;28;20049;-69
2023/06/29 01:54:46;;;;;;;45.60;29.77;;;18.80;99.90;;;;;;4991704;28;20034;-69
2023/06/29 01:57:12;;;;;;;44.03;29.87;;;18.80;99.90;;;;;;5007739;28;20393;-69
2023/06/29 01:59:39;;;;;;;43.20;29.27;;;18.80;99.90;;;;;;4991656;28;20412;-69
2023/06/29 02:02:05;;;;;;;45.13;28.93;;;18.80;99.90;;;;;;4991284;28;20033;-70
2023/06/29 02:04:32;;;;;;;45.17;28.83;;;18.70;99.90;;;;;;5007326;28;20033;-69
2023/06/29 02:06:57;;;;;;;46.50;29.03;;;18.80;99.90;;;;;;5007573;28;20327;-69
2023/06/29 02:09:23;;;;;;;45.37;29.23;;;18.80;99.90;;;;;;5007715;28;20033;-69
2023/06/29 02:11:49;;;;;;;45.43;29.97;;;18.80;99.90;;;;;;5002991;28;20109;-69
2023/06/29 02:14:18;;;;;;;41.50;28.63;;;18.70;99.90;;;;;;5011370;28;20430;-70
2023/06/29 02:16:47;;;;;;;39.43;27.77;;;18.70;99.90;;;;;;5007772;28;20053;-70
2023/06/29 02:19:13;;;;;;;42.80;29.00;;;18.70;99.90;;;;;;5002147;28;20059;-69
2023/06/29 02:21:39;;;;;;;44.77;29.20;;;18.70;99.90;;;;;;5002734;28;20042;-69
2023/06/29 02:24:05;;;;;;;39.13;27.53;;;18.70;99.90;;;;;;5011238;28;20041;-69
2023/06/29 02:26:30;;;;;;;40.70;27.57;;;18.70;99.90;;;;;;5007593;28;20065;-69
2023/06/29 02:28:56;;;;;;;43.17;27.63;;;18.70;99.90;;;;;;5004691;28;20518;-69
2023/06/29 02:31:22;;;;;;;39.63;26.23;;;18.70;99.90;;;;;;5008164;28;20046;-69
2023/06/29 02:33:49;;;;;;;39.10;26.77;;;18.70;99.90;;;;;;5011757;28;20489;-69
2023/06/29 02:36:20;;;;;;;41.70;26.83;;;18.70;99.90;;;;;;5006722;28;20405;-69
2023/06/29 02:38:47;;;;;;;40.10;25.70;;;18.70;99.90;;;;;;4992964;28;20186;-69
2023/06/29 02:41:12;;;;;;;40.30;24.27;;;18.70;99.90;;;;;;4994420;28;20088;-69
2023/06/29 02:43:38;;;;;;;39.00;24.67;;;18.80;99.90;;;;;;5011236;28;20124;-69
2023/06/29 02:46:04;;;;;;;36.57;24.27;;;18.80;99.90;;;;;;5008861;28;20081;-69
2023/06/29 02:48:29;;;;;;;35.33;23.90;;;18.80;99.90;;;;;;4994905;28;20037;-69
2023/06/29 02:50:56;;;;;;;32.70;21.50;;;18.80;99.90;;;;;;5010839;28;20092;-69
2023/06/29 02:53:21;;;;;;;34.33;22.30;;;18.80;99.80;;;;;;5011083;28;20046;-69
2023/06/29 02:55:47;;;;;;;34.43;23.27;;;18.80;99.60;;;;;;5007891;28;20038;-69
2023/06/29 02:58:13;;;;;;;36.67;22.43;;;18.80;99.50;;;;;;5004845;28;20076;-69
2023/06/29 03:00:38;;;;;;;31.23;22.00;;;18.80;99.30;;;;;;4994192;28;20108;-69
2023/06/29 03:03:04;;;;;;;29.17;20.77;;;18.80;99.20;;;;;;4994154;28;20042;-69
2023/06/29 03:05:30;;;;;;;33.73;22.30;;;18.80;99.10;;;;;;4998144;28;20124;-69
2023/06/29 03:07:56;;;;;;;32.80;20.70;;;18.80;99.10;;;;;;4987784;28;20042;-69
2023/06/29 03:10:22;;;;;;;37.43;22.27;;;18.80;98.90;;;;;;4991501;28;20054;-69
2023/06/29 03:12:47;;;;;;;35.60;23.33;;;18.80;98.80;;;;;;4992175;28;20137;-69
2023/06/29 03:15:13;;;;;;;35.33;23.23;;;18.80;98.90;;;;;;5010538;28;20045;-69
2023/06/29 03:17:39;;;;;;;33.57;23.43;;;18.80;98.90;;;;;;4993584;28;20069;-69
2023/06/29 03:20:06;;;;;;;36.03;23.00;;;18.80;99.10;;;;;;4993585;28;20046;-69
2023/06/29 03:22:35;;;;;;;36.07;24.10;;;18.80;98.90;;;;;;5009517;28;20061;-69
2023/06/29 03:25:01;;;;;;;32.33;21.80;;;18.80;99.10;;;;;;5009405;28;20293;-69
2023/06/29 03:27:27;;;;;;;33.67;21.83;;;18.80;99.00;;;;;;5010208;28;20115;-70
2023/06/29 03:29:53;;;;;;;37.03;24.10;;;18.80;99.00;;;;;;4990247;28;20092;-69
2023/06/29 03:32:19;;;;;;;36.60;22.70;;;18.80;99.10;;;;;;5004162;28;20417;-69
2023/06/29 03:34:45;;;;;;;35.07;22.53;;;18.80;99.00;;;;;;4992508;28;20050;-69
2023/06/29 03:37:11;;;;;;;32.73;21.83;;;18.80;99.00;;;;;;5009363;28;20408;-69
2023/06/29 03:39:36;;;;;;;35.77;21.57;;;18.80;99.20;;;;;;5009064;28;20045;-69
2023/06/29 03:42:03;;;;;;;30.13;21.20;;;18.80;99.10;;;;;;5009021;28;20148;-69
2023/06/29 03:44:29;;;;;;;32.93;22.03;;;18.80;98.90;;;;;;5007474;28;20438;-69
2023/06/29 03:46:54;;;;;;;35.93;22.43;;;18.80;99.00;;;;;;5006860;28;20042;-69
2023/06/29 03:49:20;;;;;;;35.87;23.60;;;18.80;99.00;;;;;;5005536;28;20103;-69
2023/06/29 03:51:46;;;;;;;29.33;21.63;;;18.90;99.00;;;;;;5003975;28;20441;-69
2023/06/29 03:54:11;;;;;;;32.30;23.63;;;18.90;99.00;;;;;;5008994;28;20113;-69
2023/06/29 03:56:37;;;;;;;34.13;23.40;;;18.90;99.20;;;;;;5008439;28;20484;-69
2023/06/29 03:59:03;;;;;;;32.40;22.43;;;18.90;98.90;;;;;;4992743;28;20042;-69
2023/06/29 04:01:28;;;;;;;36.43;23.20;;;19.00;98.90;;;;;;5008162;28;20116;-69
2023/06/29 04:03:54;;;;;;;33.73;23.00;;;19.00;98.90;;;;;;5005649;28;20120;-69
2023/06/29 04:06:20;;;;;;;33.63;22.03;;;19.00;99.00;;;;;;5008406;28;20045;-69
2023/06/29 04:08:45;;;;;;;31.43;21.87;;;19.00;99.00;;;;;;5005211;28;20074;-69
2023/06/29 04:11:12;;;;;;;32.97;21.47;;;19.00;99.00;;;;;;4985926;28;20409;-69
2023/06/29 04:13:38;;;;;;;31.23;21.13;;;19.00;98.90;;;;;;4992124;28;20038;-69
2023/06/29 04:16:04;;;;;;;31.93;21.80;;;19.00;99.00;;;;;;4992203;28;20460;-69
2023/06/29 04:18:29;;;;;;;32.07;21.50;;;19.10;98.80;;;;;;4992725;28;20046;-69
2023/06/29 04:20:55;;;;;;;30.00;20.40;;;19.10;98.70;;;;;;5009287;28;20050;-69
2023/06/29 04:23:21;;;;;;;30.93;20.73;;;19.10;98.60;;;;;;5008903;28;20041;-69
2023/06/29 04:25:47;;;;;;;28.90;20.37;;;19.10;98.40;;;;;;5008647;28;20061;-69
2023/06/29 04:28:12;;;;;;;33.13;21.47;;;19.10;98.30;;;;;;5008502;28;20050;-69
2023/06/29 04:30:42;;;;;;;30.40;20.00;;;19.10;98.20;;;;;;5008000;28;20042;-69
2023/06/29 04:33:10;;;;;;;32.23;20.17;;;19.10;98.10;;;;;;5005162;28;20060;-69
2023/06/29 04:35:44;;;;;;;29.50;20.37;;;19.10;97.90;;;;;;4987272;28;20057;-69
2023/06/29 04:38:11;;;;;;;30.97;20.33;;;19.10;97.70;;;;;;4984680;28;20046;-69
2023/06/29 04:40:40;;;;;;;34.50;21.33;;;19.00;97.70;;;;;;4992124;28;20046;-69
2023/06/29 04:43:06;;;;;;;29.90;21.07;;;19.00;97.60;;;;;;5008857;28;20045;-69
2023/06/29 04:45:32;;;;;;;32.97;21.30;;;19.00;97.60;;;;;;5006882;28;20045;-69
2023/06/29 04:47:59;;;;;;;32.70;21.67;;;19.00;97.50;;;;;;5006530;28;20474;-69
2023/06/29 04:50:26;;;;;;;31.60;21.00;;;19.00;97.50;;;;;;5008542;28;20046;-69
2023/06/29 04:52:55;;;;;;;30.60;20.73;;;19.00;97.50;;;;;;5007653;28;20042;-69
2023/06/29 04:55:22;;;;;;;31.90;21.00;;;19.00;97.60;;;;;;4992146;28;20049;-69
2023/06/29 04:57:48;;;;;;;34.13;20.47;;;19.00;97.50;;;;;;5002313;28;20045;-69
2023/06/29 05:00:14;;;;;;;31.57;20.67;;;19.00;97.50;;;;;;5007751;28;20056;-69
2023/06/29 05:02:41;;;;;;;30.30;21.60;;;19.00;97.70;;;;;;5008698;28;20402;-69
2023/06/29 05:05:07;;;;;;;29.43;20.53;;;19.00;97.90;;;;;;4982266;28;20437;-69
2023/06/29 05:07:35;;;;;;;34.17;22.80;;;19.00;98.10;;;;;;4991983;28;20121;-69
2023/06/29 05:10:01;;;;;;;31.17;20.87;;;19.00;98.20;;;;;;5008182;28;20038;-69
2023/06/29 05:12:27;;;;;;;33.23;21.87;;;19.00;98.30;;;;;;5008139;28;20140;-69
2023/06/29 05:14:53;;;;;;;35.50;22.07;;;19.00;98.30;;;;;;4992297;28;20121;-69
2023/06/29 05:17:19;;;;;;;32.47;21.03;;;19.00;98.80;;;;;;5008691;28;20030;-69
2023/06/29 05:19:45;;;;;;;33.20;21.43;;;19.00;98.70;;;;;;5008441;28;20061;-69
2023/06/29 05:22:11;;;;;;;31.23;21.53;;;19.00;99.00;;;;;;5007855;28;20042;-69
2023/06/29 05:24:37;;;;;;;30.17;19.73;;;19.00;99.00;;;;;;4991913;28;20095;-69
2023/06/29 05:27:03;;;;;;;30.93;20.33;;;19.00;99.20;;;;;;5008001;28;20035;-69
2023/06/29 05:29:29;;;;;;;31.07;20.63;;;19.00;99.50;;;;;;4999457;28;20056;-69
2023/06/29 05:31:55;;;;;;;29.27;20.97;;;19.00;99.50;;;;;;5007930;28;20486;-69
2023/06/29 05:34:21;;;;;;;29.50;19.73;;;19.00;99.50;;;;;;5008653;28;20053;-69
2023/06/29 05:36:46;;;;;;;30.23;19.50;;;19.00;99.70;;;;;;5008538;28;20037;-69
2023/06/29 05:39:12;;;;;;;29.53;20.03;;;19.00;99.60;;;;;;5008768;28;20041;-69
2023/06/29 05:41:38;;;;;;;31.73;21.07;;;19.00;99.90;;;;;;5007873;28;20125;-69
2023/06/29 05:44:06;;;;;;;28.73;21.00;;;19.10;99.90;;;;;;5008057;28;20045;-69
2023/06/29 05:46:33;;;;;;;31.70;21.10;;;19.10;99.90;;;;;;4995218;28;20034;-69
2023/06/29 05:48:59;;;;;;;30.50;20.53;;;19.10;99.90;;;;;;5015219;28;20505;-69
2023/06/29 05:51:25;;;;;;;29.90;19.93;;;19.20;99.90;;;;;;5014277;28;20117;-69
2023/06/29 05:53:52;;;;;;;29.43;20.13;;;19.20;99.90;;;;;;5015211;28;20120;-69
2023/06/29 05:56:17;;;;;;;32.40;21.13;;;19.30;99.70;;;;;;5015523;28;20041;-69
2023/06/29 05:58:43;;;;;;;30.17;19.67;;;19.30;99.60;;;;;;5015080;28;20045;-69
2023/06/29 06:01:09;;;;;;;32.37;20.30;;;19.30;99.50;;;;;;4998270;28;20070;-68
2023/06/29 06:03:35;;;;;;;29.93;19.37;;;19.30;99.20;;;;;;4989806;28;20505;-69
2023/06/29 06:06:02;;;;;;;31.57;20.77;;;19.30;99.00;;;;;;5015323;28;20467;-69
2023/06/29 06:08:27;;;;;;;31.93;20.77;;;19.30;99.20;;;;;;5014497;28;20330;-69
2023/06/29 06:10:53;;;;;;;34.77;21.10;;;19.30;99.40;;;;;;5008180;28;20125;-69
2023/06/29 06:13:19;;;;;;;35.70;20.67;;;19.40;99.40;;;;;;5002404;28;20045;-69
2023/06/29 06:15:45;;;;;;;28.77;20.20;;;19.40;99.80;;;;;;5015167;28;20063;-69
2023/06/29 06:18:10;;;;;;;29.33;20.80;;;19.50;99.20;;;;;;4997494;28;20254;-69
2023/06/29 06:20:36;;;;;;;32.23;20.73;;;19.50;99.00;;;;;;5013018;28;20048;-69
2023/06/29 06:23:02;;;;;;;30.60;21.33;;;19.60;99.10;;;;;;5014418;28;20490;-69
2023/06/29 06:25:28;;;;;;;31.33;20.77;;;19.70;99.50;;;;;;4997990;28;20363;-69
2023/06/29 06:27:53;;;;;;;33.90;21.20;;;19.80;99.30;;;;;;5013935;28;20056;-69
2023/06/29 06:30:20;;;;;;;29.03;20.80;;;19.90;98.90;;;;;;4989869;28;20050;-69
2023/06/29 06:32:46;;;;;;;30.97;20.83;;;20.00;98.90;;;;;;5013553;28;20481;-69
2023/06/29 06:35:12;;;;;;;28.40;20.50;;;20.10;98.50;;;;;;5016249;28;20045;-70
2023/06/29 06:37:38;;;;;;;30.70;20.63;;;20.20;98.10;;;;;;5018903;28;20057;-70
2023/06/29 06:40:07;;;;;;;34.23;22.27;;;20.20;97.80;;;;;;5019418;28;20096;-69
2023/06/29 06:42:34;;;;;;;32.13;20.93;;;20.30;97.50;;;;;;5019285;28;20038;-69
2023/06/29 06:45:03;;;;;;;33.23;21.90;;;20.30;97.40;;;;;;5019177;28;20076;-69
2023/06/29 06:47:33;;;;;;;31.83;22.53;;;20.40;97.10;;;;;;5016620;28;20046;-70
2023/06/29 06:49:59;;;;;;;32.60;22.40;;;20.30;96.80;;;;;;5018604;28;20656;-70
2023/06/29 06:52:25;;;;;;;33.90;22.73;;;20.40;96.60;;;;;;5000121;28;20540;-70
2023/06/29 06:54:51;;;;;;;35.10;22.30;;;20.40;96.30;;;;;;5014106;28;20045;-70
2023/06/29 06:57:18;;;;;;;35.00;22.13;;;20.40;96.10;;;;;;5015900;28;20034;-70
2023/06/29 06:59:44;;;;;;;33.07;22.47;;;20.40;95.80;;;;;;5015166;28;20091;-70
2023/06/29 07:02:10;;;;;;;31.17;22.27;;;20.40;95.20;;;;;;5006395;28;20073;-70
2023/06/29 07:04:35;;;;;;;34.43;22.57;;;20.50;95.10;;;;;;5013345;28;20127;-70
2023/06/29 07:07:02;;;;;;;32.77;22.83;;;20.50;95.10;;;;;;5011776;28;20490;-70
2023/06/29 07:09:27;;;;;;;35.80;22.67;;;20.50;95.00;;;;;;4996879;28;20556;-71
2023/06/29 07:11:53;;;;;;;41.57;24.10;;;20.60;94.50;;;;;;5014405;28;20037;-70
2023/06/29 07:14:21;;;;;;;35.50;22.87;;;20.70;94.50;;;;;;5014456;28;20413;-70
2023/06/29 07:16:47;;;;;;;40.83;23.63;;;20.80;94.40;;;;;;5013158;28;20049;-70
2023/06/29 07:19:14;;;;;;;36.67;23.93;;;20.90;94.30;;;;;;4997963;28;20092;-70
2023/06/29 07:21:41;;;;;;;31.77;21.57;;;21.00;94.10;;;;;;4997793;28;20056;-71
2023/06/29 07:24:08;;;;;;;37.17;24.27;;;21.20;93.70;;;;;;5013674;28;20042;-71
2023/06/29 07:26:34;;;;;;;38.87;22.97;;;21.40;93.60;;;;;;5013833;28;20096;-70
2023/06/29 07:29:00;;;;;;;36.07;23.70;;;21.60;92.80;;;;;;4997127;28;20054;-70
2023/06/29 07:31:26;;;;;;;48.83;24.13;;;21.80;91.90;;;;;;5012630;28;20603;-71
2023/06/29 07:33:54;;;;;;;36.37;22.57;;;21.90;90.40;;;;;;5011524;28;20502;-70
2023/06/29 07:36:20;;;;;;;41.60;23.17;;;22.10;88.80;;;;;;5005962;28;20080;-70
2023/06/29 07:38:46;;;;;;;38.03;23.40;;;22.10;88.90;;;;;;5010431;28;20107;-70
2023/06/29 07:41:12;;;;;;;36.30;24.53;;;22.30;88.60;;;;;;5002923;28;20038;-71
2023/06/29 07:43:40;;;;;;;34.77;23.67;;;22.40;86.80;;;;;;4995155;28;20045;-70
2023/06/29 07:46:06;;;;;;;33.13;24.40;;;22.30;85.50;;;;;;5011096;28;20064;-70
2023/06/29 07:48:31;;;;;;;35.33;24.57;;;22.20;85.90;;;;;;5008808;28;20298;-70
2023/06/29 07:50:57;;;;;;;33.53;23.97;;;22.10;85.60;;;;;;4993925;28;20049;-71
2023/06/29 07:53:24;;;;;;;36.47;25.00;;;22.00;85.60;;;;;;4995391;28;20053;-70
2023/06/29 07:55:50;;;;;;;39.67;25.43;;;21.80;85.50;;;;;;5008943;28;20046;-70
2023/06/29 07:58:16;;;;;;;34.77;24.43;;;21.70;86.40;;;;;;4989008;28;20559;-70
2023/06/29 08:00:42;;;;;;;34.67;25.03;;;21.60;86.60;;;;;;5009809;28;20093;-70
2023/06/29 08:03:08;;;;;;;35.77;24.93;;;21.50;87.20;;;;;;5010924;28;20072;-70
2023/06/29 08:05:33;;;;;;;35.93;27.00;;;21.50;87.70;;;;;;5012704;28;20042;-70
2023/06/29 08:07:59;;;;;;;38.13;26.23;;;21.40;87.50;;;;;;5002186;28;20069;-70
2023/06/29 08:10:25;;;;;;;34.80;25.77;;;21.40;87.10;;;;;;5007989;28;20078;-70
2023/06/29 08:12:51;;;;;;;34.30;24.70;;;21.30;87.00;;;;;;4997257;28;20046;-70
2023/06/29 08:15:17;;;;;;;34.57;25.53;;;21.20;87.10;;;;;;5009169;28;20120;-70
2023/06/29 08:17:42;;;;;;;36.30;26.97;;;21.10;87.70;;;;;;5009841;28;20430;-70
2023/06/29 08:20:12;;;;;;;37.77;25.70;;;21.10;88.10;;;;;;5009481;28;20042;-70
2023/06/29 08:22:45;;;;;;;35.37;25.83;;;21.10;88.20;;;;;;4993861;28;20094;-70
2023/06/29 08:25:10;;;;;;;37.20;26.10;;;21.10;88.40;;;;;;4992068;28;20561;-70
2023/06/29 08:27:36;;;;;;;35.30;25.27;;;21.00;88.60;;;;;;4992310;28;20169;-70
2023/06/29 08:30:02;;;;;;;37.87;26.13;;;21.00;88.40;;;;;;5000690;28;20502;-70
2023/06/29 08:32:28;;;;;;;34.37;24.83;;;21.00;88.40;;;;;;5008632;28;20516;-70
2023/06/29 08:34:54;;;;;;;34.40;24.30;;;20.90;88.70;;;;;;4993403;28;20030;-70
2023/06/29 08:37:20;;;;;;;35.97;25.50;;;20.90;89.00;;;;;;5009142;28;20405;-70
2023/06/29 08:39:45;;;;;;;35.60;24.90;;;20.90;89.40;;;;;;5002743;28;20053;-70
2023/06/29 08:42:12;;;;;;;38.03;25.17;;;20.90;89.40;;;;;;4991929;28;20057;-70
2023/06/29 08:44:38;;;;;;;36.97;25.73;;;21.00;89.70;;;;;;5009752;28;20042;-70
2023/06/29 08:47:05;;;;;;;38.23;27.13;;;21.00;89.20;;;;;;5009098;28;20693;-70
2023/06/29 08:49:34;;;;;;;41.57;28.87;;;21.00;89.30;;;;;;5004907;28;20069;-70
2023/06/29 08:52:04;;;;;;;40.67;29.20;;;21.00;89.20;;;;;;5008088;28;20076;-70
2023/06/29 08:54:32;;;;;;;44.57;28.17;;;20.80;89.50;;;;;;5008482;28;20053;-70
2023/06/29 08:57:02;;;;;;;39.60;27.63;;;20.60;90.50;;;;;;5009368;28;20037;-70
2023/06/29 08:59:28;;;;;;;39.17;27.60;;;20.30;92.00;;;;;;5007977;28;20030;-70
2023/06/29 09:01:57;;;;;;;37.40;27.53;;;20.10;92.60;;;;;;4991884;28;20133;-70
2023/06/29 09:04:24;;;;;;;41.17;29.17;;;20.10;92.90;;;;;;4988026;28;20038;-70
2023/06/29 09:06:53;;;;;;;45.53;30.93;;;20.00;93.90;;;;;;5008580;28;20117;-70
2023/06/29 09:09:20;;;;;;;47.97;30.73;;;20.00;94.70;;;;;;5008618;28;20081;-70
2023/06/29 09:11:46;;;;;;;43.47;30.53;;;20.00;95.20;;;;;;5002201;28;20049;-70
2023/06/29 09:14:11;;;;;;;49.53;32.10;;;20.00;95.10;;;;;;5009166;28;20054;-70
2023/06/29 09:16:50;;;;;;;49.47;32.83;;;20.00;95.90;;;;;;5007745;28;20100;-70
2023/06/29 09:19:17;;;;;;;45.77;30.67;;;20.10;95.60;;;;;;5005537;28;20049;-70
2023/06/29 09:21:47;;;;;;;47.37;32.10;;;20.10;96.00;;;;;;4988403;28;20062;-70
2023/06/29 09:24:17;;;;;;;51.10;32.23;;;20.20;96.00;;;;;;5007005;28;20048;-70
2023/06/29 09:26:43;;;;;;;56.87;33.37;;;20.20;96.00;;;;;;5005858;28;20101;-70
2023/06/29 09:29:09;;;;;;;49.83;33.80;;;20.30;96.40;;;;;;4986255;28;20046;-70
2023/06/29 09:31:37;;;;;;;53.57;32.77;;;20.40;97.20;;;;;;5005322;28;20103;-70
2023/06/29 09:34:17;;;;;;;51.33;32.97;;;20.50;97.10;;;;;;5008605;28;20652;-70
2023/06/29 09:36:43;;;;;;;47.00;31.77;;;20.60;96.80;;;;;;4993157;28;20125;-70
2023/06/29 09:39:09;;;;;;;43.90;32.03;;;20.70;96.50;;;;;;5009257;28;20117;-70
2023/06/29 09:41:48;;;;;;;46.73;31.47;;;20.90;96.20;;;;;;4993114;28;20049;-70
2023/06/29 09:44:21;;;;;;;50.27;34.10;;;21.00;95.60;;;;;;4987477;28;20042;-70
2023/06/29 09:47:11;;;;;;;46.30;31.43;;;21.10;95.00;;;;;;4989239;28;20041;-70
2023/06/29 09:49:47;;;;;;;47.33;32.63;;;21.20;94.10;;;;;;4991992;28;20049;-70
2023/06/29 09:52:15;;;;;;;45.13;31.33;;;21.20;93.60;;;;;;5008038;28;20042;-70
2023/06/29 09:54:41;;;;;;;42.30;30.83;;;21.20;93.10;;;;;;5008660;28;20050;-70
2023/06/29 09:57:10;;;;;;;43.50;30.80;;;21.20;93.10;;;;;;4992521;28;20072;-70
2023/06/29 09:59:39;;;;;;;42.43;30.87;;;21.30;93.20;;;;;;4987901;28;20042;-70
2023/06/29 10:02:06;;;;;;;44.17;30.93;;;21.40;93.10;;;;;;5005863;28;20046;-70
2023/06/29 10:04:32;;;;;;;43.93;31.27;;;21.40;92.90;;;;;;4986182;28;20044;-70
2023/06/29 10:07:24;;;;;;;45.57;31.17;;;21.40;92.40;;;;;;5008880;28;20398;-70
2023/06/29 10:09:51;;;;;;;44.00;32.17;;;21.40;91.30;;;;;;5003433;28;20050;-70
2023/06/29 10:12:18;;;;;;;43.93;32.57;;;21.40;90.90;;;;;;5005061;28;20100;-70
2023/06/29 10:14:45;;;;;;;43.27;31.60;;;21.30;90.80;;;;;;5006858;28;20049;-70
2023/06/29 10:17:30;;;;;;;45.10;31.07;;;21.30;91.20;;;;;;5009151;28;20076;-70
2023/06/29 10:19:57;;;;;;;45.88;32.58;;;21.30;91.20;;;;;;4992308;28;20046;-70
2023/06/29 10:22:25;;;;;;;41.90;31.70;;;21.30;91.70;;;;;;5008455;28;20045;-70
2023/06/29 10:25:03;;;;;;;47.10;32.93;;;21.40;91.70;;;;;;5008457;28;20034;-70
2023/06/29 10:27:30;;;;;;;43.83;31.27;;;21.60;91.60;;;;;;5006730;28;20046;-70
2023/06/29 10:30:01;;;;;;;47.43;32.17;;;21.80;90.70;;;;;;5008095;28;20050;-70
2023/06/29 10:32:34;;;;;;;45.90;32.23;;;21.90;89.90;;;;;;5009843;28;20420;-70
2023/06/29 10:35:12;;;;;;;48.83;33.20;;;22.00;89.70;;;;;;4999690;28;20046;-70
2023/06/29 10:37:44;;;;;;;48.87;32.73;;;22.20;89.60;;;;;;5011413;28;20046;-71
2023/06/29 10:40:14;;;;;;;44.90;32.17;;;22.40;88.30;;;;;;5007369;28;20161;-70
2023/06/29 10:42:40;;;;;;;46.27;34.27;;;22.50;88.20;;;;;;5009410;28;20046;-69
2023/06/29 10:45:09;;;;;;;41.17;32.40;;;22.40;86.90;;;;;;4992553;28;20037;-70
2023/06/29 10:47:39;;;;;;;42.00;30.63;;;22.30;86.30;;;;;;5000109;28;20034;-70
2023/06/29 10:50:11;;;;;;;45.37;32.23;;;22.20;86.30;;;;;;5014297;28;20048;-70
2023/06/29 10:52:37;;;;;;;43.47;32.23;;;22.30;86.40;;;;;;5014216;28;20705;-71
2023/06/29 10:55:20;;;;;;;41.60;30.57;;;22.30;85.80;;;;;;5013880;28;20074;-70
2023/06/29 10:57:54;;;;;;;48.30;32.20;;;22.30;84.00;;;;;;4997805;28;20181;-70
2023/06/29 11:00:21;;;;;;;47.15;31.17;;;22.30;85.60;;;;;;5012458;28;20107;-71
2023/06/29 11:02:48;;;;;;;42.27;30.13;;;22.40;84.90;;;;;;5013972;28;20033;-71
2023/06/29 11:05:18;;;;;;;43.00;29.83;;;22.50;84.00;;;;;;4995982;28;20041;-70
2023/06/29 11:07:51;;;;;;;43.33;31.03;;;22.70;83.80;;;;;;5012721;28;20132;-71
2023/06/29 11:10:19;;;;;;;44.37;31.73;;;23.00;82.50;;;;;;4996212;28;20073;-70
2023/06/29 11:12:45;;;;;;;40.43;30.43;;;23.20;81.40;;;;;;5006558;28;20133;-70
2023/06/29 11:15:16;;;;;;;39.67;28.90;;;23.40;81.70;;;;;;5012952;28;20081;-69
2023/06/29 11:17:48;;;;;;;39.13;28.90;;;23.60;79.30;;;;;;4996614;28;20046;-69
2023/06/29 11:20:16;;;;;;;35.13;27.00;;;23.70;79.60;;;;;;5012432;28;20054;-70
2023/06/29 11:22:43;;;;;;;32.90;23.77;;;23.70;79.10;;;;;;5012488;28;20044;-70
2023/06/29 11:25:14;;;;;;;32.10;23.27;;;24.00;78.90;;;;;;5011650;28;20038;-69
2023/06/29 11:27:41;;;;;;;37.97;24.27;;;24.20;76.00;;;;;;5010897;28;20097;-70
2023/06/29 11:30:09;;;;;;;38.77;24.80;;;24.40;75.40;;;;;;5011257;28;20490;-70
2023/06/29 11:32:35;;;;;;;34.43;23.17;;;24.40;74.20;;;;;;5012385;28;20050;-70
2023/06/29 11:35:06;;;;;;;30.13;21.93;;;24.40;75.10;;;;;;4996069;28;20053;-70
2023/06/29 11:37:34;;;;;;;30.27;22.13;;;24.40;74.80;;;;;;5012656;28;20753;-70
2023/06/29 11:40:07;;;;;;;34.40;22.87;;;24.30;75.00;;;;;;5012382;28;20046;-70
2023/06/29 11:42:34;;;;;;;31.87;22.87;;;24.30;75.40;;;;;;5011634;28;20406;-70
2023/06/29 11:45:09;;;;;;;36.13;24.57;;;24.30;75.50;;;;;;4995113;28;20109;-70
2023/06/29 11:47:36;;;;;;;38.23;27.03;;;24.30;75.30;;;;;;5009732;28;20046;-70
2023/06/29 11:50:04;;;;;;;38.23;25.93;;;24.40;74.50;;;;;;5008852;28;20049;-70
2023/06/29 11:52:32;;;;;;;40.20;27.57;;;24.50;75.40;;;;;;5013430;28;20068;-70
2023/06/29 11:55:03;;;;;;;38.90;27.13;;;24.50;73.80;;;;;;4995563;28;20041;-71
2023/06/29 11:57:33;;;;;;;36.73;27.17;;;24.60;74.60;;;;;;4994897;28;20040;-71
2023/06/29 11:59:59;;;;;;;39.23;27.97;;;24.90;73.80;;;;;;5012507;28;20097;-71
2023/06/29 12:02:26;;;;;;;38.77;27.07;;;24.90;72.70;;;;;;5011289;28;20515;-71
2023/06/29 12:04:55;;;;;;;38.77;27.90;;;24.80;71.90;;;;;;5010157;28;20041;-70
2023/06/29 12:07:40;;;;;;;38.77;28.07;;;24.50;73.00;;;;;;5012675;28;20042;-70
2023/06/29 12:10:08;;;;;;;41.63;29.30;;;24.20;74.20;;;;;;4995505;28;20124;-70
2023/06/29 12:12:40;;;;;;;41.07;29.93;;;23.70;75.80;;;;;;4993589;28;20096;-70
2023/06/29 12:15:15;;;;;;;41.67;30.47;;;23.40;76.90;;;;;;5008570;28;20038;-70
2023/06/29 12:17:44;;;;;;;;;;;23.10;77.30;;;;;;5009678;28;20045;-70
2023/06/29 12:20:14;;;;;;;41.27;30.47;;;23.00;77.90;;;;;;4990509;28;19924;-70
2023/06/29 12:22:41;;;;;;;42.70;31.80;;;23.00;77.90;;;;;;5003562;28;20038;-70
2023/06/29 12:25:10;;;;;;;39.27;29.40;;;22.90;78.80;;;;;;5007891;28;20038;-70
2023/06/29 12:27:36;;;;;;;45.07;31.70;;;23.00;78.30;;;;;;5004335;28;20137;-70
2023/06/29 12:30:02;;;;;;;43.87;32.00;;;22.90;77.80;;;;;;5002053;28;20130;-70